createdAt,value
2019-03-15T00:00:44.441Z,53.72
2019-03-15T00:03:15.772Z,53.67
2019-03-15T00:05:46.006Z,53.79
2019-03-15T00:08:16.947Z,53.99
2019-03-15T00:10:47.985Z,54.35
2019-03-15T00:13:19.436Z,54.34
2019-03-15T00:15:49.554Z,54.38
2019-03-15T00:18:20.528Z,54.43
2019-03-15T00:20:51.122Z,54.72
2019-03-15T00:23:21.854Z,54.56
2019-03-15T00:25:55.349Z,54.79
2019-03-15T00:28:25.157Z,54.93
2019-03-15T00:30:55.751Z,55.07
2019-03-15T00:33:26.216Z,55.12
2019-03-15T00:35:57.457Z,55.41
2019-03-15T00:38:29.112Z,55.58
2019-03-15T00:40:59.639Z,55.44
2019-03-15T00:43:30.065Z,55.57
2019-03-15T00:46:00.300Z,55.48
2019-03-15T00:48:32.864Z,55.64
2019-03-15T00:51:04.417Z,55.78
2019-03-15T00:53:34.941Z,55.97
2019-03-15T00:56:05.382Z,56.11
2019-03-15T00:58:35.893Z,56.56
2019-03-15T01:01:07.795Z,57.47
2019-03-15T01:03:40.841Z,57.63
2019-03-15T01:06:12.433Z,57.78
2019-03-15T01:08:43.439Z,58.19
2019-03-15T01:11:13.655Z,58.18
2019-03-15T01:13:45.891Z,58.27
2019-03-15T01:16:17.063Z,58.27
2019-03-15T01:18:47.694Z,58.47
2019-03-15T01:21:20.955Z,58.59
2019-03-15T01:23:51.410Z,58.54
2019-03-15T01:26:21.834Z,59.08
2019-03-15T01:28:52.366Z,60.02
2019-03-15T01:31:22.420Z,61.23
2019-03-15T01:33:53.285Z,61.94
2019-03-15T01:36:23.843Z,62.56
2019-03-15T01:38:54.473Z,62.79
2019-03-15T01:41:25.034Z,63.27
2019-03-15T01:43:55.736Z,63.51
2019-03-15T01:46:26.057Z,63.41
2019-03-15T01:48:56.687Z,62.98
2019-03-15T01:51:26.900Z,62.38
2019-03-15T01:53:57.538Z,62.05
2019-03-15T01:56:27.967Z,61.71
2019-03-15T01:58:58.598Z,61.26
2019-03-15T02:01:32.281Z,61.17
2019-03-15T02:04:02.822Z,61.13
2019-03-15T02:06:33.974Z,61.13
2019-03-15T02:09:08.945Z,60.50
2019-03-15T02:11:38.490Z,61.01
2019-03-15T02:14:08.498Z,61.75
2019-03-15T02:16:40.710Z,61.97
2019-03-15T02:19:11.089Z,62.11
2019-03-15T02:21:41.657Z,62.37
2019-03-15T02:24:11.699Z,62.74
2019-03-15T02:26:42.170Z,62.78
2019-03-15T02:29:13.524Z,62.76
2019-03-15T02:31:45.450Z,63.10
2019-03-15T02:34:16.134Z,63.30
2019-03-15T02:36:46.747Z,63.23
2019-03-15T02:39:17.387Z,63.66
2019-03-15T02:41:47.641Z,64.21
2019-03-15T02:44:19.971Z,64.15
2019-03-15T02:46:51.633Z,64.30
2019-03-15T02:49:23.068Z,64.47
2019-03-15T02:51:54.115Z,64.69
2019-03-15T02:54:27.361Z,64.71
2019-03-15T02:56:59.571Z,64.56
2019-03-15T02:59:30.833Z,64.21
2019-03-15T03:02:03.188Z,63.71
2019-03-15T03:04:38.734Z,63.50
2019-03-15T03:07:09.366Z,63.70
2019-03-15T03:09:41.735Z,63.69
2019-03-15T03:12:11.949Z,63.40
2019-03-15T03:14:42.999Z,63.23
2019-03-15T03:17:13.555Z,63.44
2019-03-15T03:19:45.051Z,63.18
2019-03-15T03:22:15.542Z,62.95
2019-03-15T03:24:48.691Z,63.06
2019-03-15T03:27:19.317Z,63.31
2019-03-15T03:29:50.907Z,63.30
2019-03-15T03:32:21.730Z,63.13
2019-03-15T03:34:52.230Z,62.93
2019-03-15T03:37:22.960Z,63.23
2019-03-15T03:39:53.450Z,63.34
2019-03-15T03:42:25.696Z,63.40
2019-03-15T03:44:57.308Z,63.46
2019-03-15T03:47:27.632Z,63.16
2019-03-15T03:49:58.773Z,63.15
2019-03-15T03:52:30.529Z,63.07
2019-03-15T03:55:01.057Z,63.11
2019-03-15T03:57:31.688Z,63.03
2019-03-15T04:00:03.063Z,63.23
2019-03-15T04:02:34.047Z,63.19
2019-03-15T04:05:06.039Z,63.69
2019-03-15T04:07:36.456Z,63.83
2019-03-15T04:10:09.457Z,64.14
2019-03-15T04:12:39.775Z,64.50
2019-03-15T04:15:11.515Z,64.50
2019-03-15T04:17:42.255Z,64.55
2019-03-15T04:20:13.194Z,64.38
2019-03-15T04:22:43.758Z,64.40
2019-03-15T04:25:14.555Z,64.65
2019-03-15T04:27:45.289Z,65.09
2019-03-15T04:30:15.921Z,65.03
2019-03-15T04:32:46.651Z,64.80
2019-03-15T04:35:17.385Z,64.87
2019-03-15T04:37:48.022Z,64.86
2019-03-15T04:40:20.793Z,64.60
2019-03-15T04:42:54.086Z,64.72
2019-03-15T04:45:25.535Z,63.99
2019-03-15T04:47:56.367Z,63.77
2019-03-15T04:50:26.999Z,63.81
2019-03-15T04:52:57.735Z,63.67
2019-03-15T04:55:28.875Z,63.20
2019-03-15T04:58:00.020Z,63.00
2019-03-15T05:00:30.487Z,62.77
2019-03-15T05:03:01.790Z,62.08
2019-03-15T05:05:32.075Z,61.56
2019-03-15T05:08:03.252Z,61.18
2019-03-15T05:10:34.294Z,60.75
2019-03-15T05:13:05.853Z,60.72
2019-03-15T05:15:37.403Z,60.65
2019-03-15T05:18:10.822Z,60.18
2019-03-15T05:20:42.161Z,59.82
2019-03-15T05:23:13.385Z,59.48
2019-03-15T05:25:45.856Z,59.44
2019-03-15T05:28:16.695Z,59.63
2019-03-15T05:30:47.180Z,59.63
2019-03-15T05:33:19.501Z,59.53
2019-03-15T05:35:49.940Z,59.51
2019-03-15T05:38:24.535Z,59.32
2019-03-15T05:40:55.104Z,59.09
2019-03-15T05:43:26.735Z,58.75
2019-03-15T05:45:57.870Z,58.38
2019-03-15T05:48:28.160Z,58.18
2019-03-15T05:50:59.841Z,57.49
2019-03-15T05:53:31.285Z,56.76
2019-03-15T05:56:02.019Z,56.34
2019-03-15T05:58:32.754Z,55.98
2019-03-15T06:01:03.380Z,55.43
2019-03-15T06:03:48.027Z,54.79
2019-03-15T06:06:09.590Z,54.48
2019-03-15T06:08:40.939Z,54.52
2019-03-15T06:11:12.864Z,54.20
2019-03-15T06:13:43.517Z,53.70
2019-03-15T06:16:14.334Z,53.36
2019-03-15T06:18:48.349Z,52.47
2019-03-15T06:21:21.324Z,51.77
2019-03-15T06:23:51.956Z,51.20
2019-03-15T06:26:23.195Z,51.70
2019-03-15T06:28:54.250Z,51.44
2019-03-15T06:31:24.560Z,51.40
2019-03-15T06:33:56.726Z,52.05
2019-03-15T06:36:27.275Z,52.18
2019-03-15T06:38:57.984Z,51.87
2019-03-15T06:41:28.614Z,51.90
2019-03-15T06:43:59.382Z,52.50
2019-03-15T06:46:31.860Z,52.24
2019-03-15T06:49:03.166Z,52.34
2019-03-15T06:51:34.257Z,53.40
2019-03-15T06:54:11.368Z,53.53
2019-03-15T06:56:38.442Z,52.37
2019-03-15T06:59:09.268Z,52.67
2019-03-15T07:01:39.900Z,51.64
2019-03-15T07:04:10.636Z,51.23
2019-03-15T07:06:42.481Z,50.25
2019-03-15T07:09:15.274Z,51.04
2019-03-15T07:11:45.911Z,51.62
2019-03-15T07:14:17.950Z,51.33
2019-03-15T07:16:48.559Z,51.50
2019-03-15T07:19:27.354Z,51.17
2019-03-15T07:22:03.137Z,51.03
2019-03-15T07:24:35.339Z,49.63
2019-03-15T07:27:12.984Z,49.85
2019-03-15T07:29:39.662Z,50.42
2019-03-15T07:32:10.770Z,50.62
2019-03-15T07:34:45.124Z,50.78
2019-03-15T07:37:17.293Z,50.24
2019-03-15T07:39:47.967Z,50.15
2019-03-15T07:42:21.598Z,49.82
2019-03-15T07:44:51.848Z,49.73
2019-03-15T07:47:23.494Z,49.26
2019-03-15T07:49:54.547Z,48.96
2019-03-15T07:52:27.527Z,49.79
2019-03-15T07:54:59.791Z,49.79
2019-03-15T07:57:32.060Z,49.22
2019-03-15T08:00:02.655Z,48.10
2019-03-15T08:02:35.293Z,47.36
2019-03-15T08:05:06.553Z,47.31
2019-03-15T08:07:44.351Z,47.51
2019-03-15T08:10:11.139Z,47.06
2019-03-15T08:12:42.869Z,47.37
2019-03-15T08:15:15.791Z,46.56
2019-03-15T08:17:46.213Z,46.34
2019-03-15T08:20:19.337Z,45.50
2019-03-15T08:22:50.032Z,45.24
2019-03-15T08:25:21.489Z,45.29
2019-03-15T08:27:51.998Z,44.55
2019-03-15T08:30:25.101Z,46.18
2019-03-15T08:33:09.191Z,45.53
2019-03-15T08:35:30.965Z,46.00
2019-03-15T08:38:05.295Z,45.99
2019-03-15T08:40:35.200Z,45.42
2019-03-15T08:43:06.028Z,46.19
2019-03-15T08:45:38.603Z,45.69
2019-03-15T08:48:09.029Z,47.62
2019-03-15T08:50:39.760Z,47.97
2019-03-15T08:53:10.504Z,48.18
2019-03-15T08:55:41.924Z,48.01
2019-03-15T08:58:20.293Z,49.50
2019-03-15T09:00:46.586Z,47.90
2019-03-15T09:03:27.971Z,47.32
2019-03-15T09:05:49.904Z,47.56
2019-03-15T09:08:20.624Z,48.47
2019-03-15T09:10:52.176Z,48.01
2019-03-15T09:13:22.624Z,48.08
2019-03-15T09:15:54.571Z,48.31
2019-03-15T09:18:25.298Z,47.46
2019-03-15T09:20:56.053Z,48.04
2019-03-15T09:23:26.867Z,48.86
2019-03-15T09:25:57.492Z,48.96
2019-03-15T09:28:28.738Z,48.42
2019-03-15T09:31:01.200Z,48.51
2019-03-15T09:33:31.637Z,48.22
2019-03-15T09:36:02.673Z,47.64
2019-03-15T09:38:33.398Z,48.47
2019-03-15T09:41:04.242Z,48.62
2019-03-15T09:43:35.572Z,48.52
2019-03-15T09:46:06.426Z,48.11
2019-03-15T09:48:37.154Z,47.57
2019-03-15T09:51:07.786Z,47.34
2019-03-15T09:53:41.185Z,46.71
2019-03-15T09:56:12.016Z,47.50
2019-03-15T09:58:42.653Z,48.18
2019-03-15T10:01:13.854Z,47.80
2019-03-15T10:03:44.623Z,48.21
2019-03-15T10:06:19.405Z,49.71
2019-03-15T10:08:48.152Z,49.76
2019-03-15T10:11:19.910Z,49.56
2019-03-15T10:13:52.857Z,49.96
2019-03-15T10:16:25.083Z,50.29
2019-03-15T10:18:58.387Z,50.78
2019-03-15T10:21:29.153Z,50.66
2019-03-15T10:23:59.937Z,50.07
2019-03-15T10:26:32.679Z,49.06
2019-03-15T10:29:14.500Z,49.16
2019-03-15T10:31:35.979Z,48.66
2019-03-15T10:34:08.017Z,48.55
2019-03-15T10:36:38.571Z,49.64
2019-03-15T10:39:11.568Z,49.51
2019-03-15T10:41:47.010Z,50.15
2019-03-15T10:44:19.074Z,51.00
2019-03-15T10:46:49.725Z,51.78
2019-03-15T10:49:20.514Z,51.82
2019-03-15T10:51:52.602Z,51.93
2019-03-15T10:54:23.743Z,52.41
2019-03-15T10:56:57.857Z,52.18
2019-03-15T10:59:29.174Z,52.77
2019-03-15T11:02:00.455Z,52.88
2019-03-15T11:04:30.997Z,52.24
2019-03-15T11:07:03.549Z,50.98
2019-03-15T11:09:34.283Z,50.31
2019-03-15T11:12:04.914Z,49.73
2019-03-15T11:14:37.526Z,49.28
2019-03-15T11:17:08.317Z,47.37
2019-03-15T11:19:39.043Z,46.55
2019-03-15T11:22:10.099Z,46.10
2019-03-15T11:24:43.652Z,46.48
2019-03-15T11:27:13.265Z,47.71
2019-03-15T11:29:44.992Z,49.41
2019-03-15T11:32:15.990Z,50.12
2019-03-15T11:34:48.119Z,51.16
2019-03-15T11:37:18.795Z,50.90
2019-03-15T11:39:49.629Z,51.40
2019-03-15T11:42:22.880Z,51.77
2019-03-15T11:44:53.554Z,51.69
2019-03-15T11:47:24.201Z,52.51
2019-03-15T11:49:55.014Z,52.43
2019-03-15T11:52:25.756Z,52.14
2019-03-15T11:54:56.500Z,51.93
2019-03-15T11:57:27.315Z,51.99
2019-03-15T11:59:58.617Z,51.87
2019-03-15T12:02:29.422Z,51.09
2019-03-15T12:05:00.438Z,49.98
2019-03-15T12:07:32.539Z,49.02
2019-03-15T12:10:06.307Z,48.99
2019-03-15T12:12:36.590Z,47.89
2019-03-15T12:15:14.590Z,44.55
2019-03-15T12:17:45.641Z,44.14
2019-03-15T12:20:17.513Z,45.54
2019-03-15T12:22:48.467Z,47.11
2019-03-15T12:25:18.807Z,47.28
2019-03-15T12:27:50.050Z,46.71
2019-03-15T12:30:20.660Z,47.00
2019-03-15T12:32:53.394Z,45.79
2019-03-15T12:35:25.627Z,44.15
2019-03-15T12:37:58.944Z,42.69
2019-03-15T12:40:29.696Z,39.49
2019-03-15T12:43:01.181Z,38.51
2019-03-15T12:45:31.609Z,39.15
2019-03-15T12:48:02.248Z,39.39
2019-03-15T12:50:33.505Z,39.67
2019-03-15T12:53:05.774Z,41.63
2019-03-15T12:55:38.461Z,44.13
2019-03-15T12:58:09.270Z,45.69
2019-03-15T13:00:41.227Z,46.30
2019-03-15T13:03:13.597Z,47.25
2019-03-15T13:05:44.225Z,47.02
2019-03-15T13:08:15.215Z,48.16
2019-03-15T13:10:46.104Z,47.50
2019-03-15T13:13:17.710Z,47.87
2019-03-15T13:15:49.518Z,48.02
2019-03-15T13:18:20.963Z,48.82
2019-03-15T13:20:51.686Z,48.99
2019-03-15T13:23:22.536Z,49.20
2019-03-15T13:25:54.664Z,48.36
2019-03-15T13:28:28.504Z,48.44
2019-03-15T13:30:58.568Z,49.55
2019-03-15T13:33:28.876Z,49.21
2019-03-15T13:35:59.571Z,48.49
2019-03-15T13:38:30.097Z,47.65
2019-03-15T13:41:00.840Z,48.39
2019-03-15T13:43:32.486Z,49.34
2019-03-15T13:46:04.386Z,50.51
2019-03-15T13:48:36.080Z,51.32
2019-03-15T13:51:06.920Z,51.28
2019-03-15T13:53:37.872Z,51.49
2019-03-15T13:56:08.413Z,51.74
2019-03-15T13:58:40.506Z,52.16
2019-03-15T14:01:11.183Z,53.00
2019-03-15T14:03:43.875Z,53.71
2019-03-15T14:06:14.613Z,53.71
2019-03-15T14:08:46.060Z,54.51
2019-03-15T14:11:16.486Z,54.53
2019-03-15T14:13:49.059Z,54.84
2019-03-15T14:16:22.662Z,55.53
2019-03-15T14:18:52.880Z,55.50
2019-03-15T14:21:24.331Z,55.12
2019-03-15T14:23:56.821Z,54.85
2019-03-15T14:26:27.434Z,55.26
2019-03-15T14:28:58.257Z,55.38
2019-03-15T14:31:29.000Z,55.66
2019-03-15T14:34:00.425Z,55.85
2019-03-15T14:36:30.775Z,55.93
2019-03-15T14:39:02.971Z,55.79
2019-03-15T14:41:34.117Z,56.34
2019-03-15T14:44:04.827Z,56.32
2019-03-15T14:46:36.476Z,56.39
2019-03-15T14:49:06.794Z,56.79
2019-03-15T14:51:39.882Z,56.61
2019-03-15T14:54:11.930Z,56.59
2019-03-15T14:56:42.576Z,56.90
2019-03-15T14:59:14.740Z,57.15
2019-03-15T15:01:45.176Z,57.21
2019-03-15T15:04:16.697Z,57.03
2019-03-15T15:06:47.976Z,57.28
2019-03-15T15:09:19.319Z,57.44
2019-03-15T15:11:49.942Z,58.26
2019-03-15T15:14:22.832Z,58.24
2019-03-15T15:16:53.659Z,58.53
2019-03-15T15:19:25.922Z,58.83
2019-03-15T15:22:01.186Z,58.98
2019-03-15T15:24:34.010Z,59.12
2019-03-15T15:27:08.138Z,59.27
2019-03-15T15:29:41.285Z,59.57
2019-03-15T15:32:16.765Z,59.93
2019-03-15T15:34:50.422Z,60.43
2019-03-15T15:37:24.596Z,60.83
2019-03-15T15:40:00.069Z,61.14
2019-03-15T15:42:33.110Z,61.16
2019-03-15T15:45:06.721Z,61.80
2019-03-15T15:47:43.681Z,61.66
2019-03-15T15:50:17.888Z,61.80
2019-03-15T15:52:49.773Z,61.80
2019-03-15T15:55:21.548Z,61.91
2019-03-15T15:57:52.380Z,62.11
2019-03-15T16:00:23.031Z,61.95
2019-03-15T16:02:54.574Z,61.68
2019-03-15T16:05:25.409Z,62.02
2019-03-15T16:07:58.792Z,62.04
2019-03-15T16:10:29.974Z,62.14
2019-03-15T16:13:02.748Z,62.32
2019-03-15T16:15:33.765Z,62.53
2019-03-15T16:18:04.597Z,62.73
2019-03-15T16:20:35.324Z,62.95
2019-03-15T16:23:06.153Z,63.03
2019-03-15T16:25:36.992Z,63.26
2019-03-15T16:28:07.924Z,62.88
2019-03-15T16:30:39.770Z,63.03
2019-03-15T16:33:14.251Z,63.37
2019-03-15T16:35:45.760Z,63.76
2019-03-15T16:38:17.720Z,63.59
2019-03-15T16:40:49.748Z,63.19
2019-03-15T16:43:21.231Z,63.82
2019-03-15T16:45:54.757Z,63.74
2019-03-15T16:48:25.666Z,63.32
2019-03-15T16:50:56.184Z,63.47
2019-03-15T16:53:26.519Z,63.34
2019-03-15T16:55:56.940Z,63.52
2019-03-15T16:58:27.978Z,63.50
2019-03-15T17:00:58.450Z,63.56
2019-03-15T17:03:30.009Z,63.70
2019-03-15T17:06:02.433Z,64.05
2019-03-15T17:08:33.902Z,63.98
2019-03-15T17:11:05.989Z,64.13
2019-03-15T17:13:37.042Z,63.98
2019-03-15T17:16:07.966Z,63.92
2019-03-15T17:18:38.874Z,63.93
2019-03-15T17:21:09.594Z,64.00
2019-03-15T17:23:40.427Z,64.49
2019-03-15T17:26:11.058Z,64.63
2019-03-15T17:28:41.484Z,64.32
2019-03-15T17:31:12.114Z,64.50
2019-03-15T17:33:45.859Z,64.57
2019-03-15T17:36:16.489Z,64.69
2019-03-15T17:38:47.073Z,64.77
2019-03-15T17:41:18.729Z,64.39
2019-03-15T17:43:49.461Z,64.74
2019-03-15T17:46:20.153Z,65.15
2019-03-15T17:48:51.436Z,65.04
2019-03-15T17:51:22.170Z,65.02
2019-03-15T17:53:52.799Z,64.79
2019-03-15T17:56:23.736Z,64.58
2019-03-15T17:58:55.272Z,64.78
2019-03-15T18:01:26.840Z,64.97
2019-03-15T18:03:58.732Z,65.00
2019-03-15T18:06:31.073Z,65.01
2019-03-15T18:09:01.915Z,65.32
2019-03-15T18:11:32.536Z,65.54
2019-03-15T18:14:03.676Z,65.79
2019-03-15T18:16:34.306Z,65.79
2019-03-15T18:19:07.325Z,65.62
2019-03-15T18:21:38.602Z,65.63
2019-03-15T18:24:10.700Z,65.82
2019-03-15T18:26:41.431Z,65.88
2019-03-15T18:29:25.446Z,65.90
2019-03-15T18:31:45.749Z,65.38
2019-03-15T18:34:16.499Z,65.63
2019-03-15T18:36:47.207Z,65.81
2019-03-15T18:39:18.066Z,65.60
2019-03-15T18:41:50.619Z,65.75
2019-03-15T18:44:22.404Z,66.25
2019-03-15T18:46:53.231Z,66.08
2019-03-15T18:49:24.798Z,65.98
2019-03-15T18:51:55.245Z,66.09
2019-03-15T18:54:26.655Z,66.01
2019-03-15T18:56:57.191Z,66.24
2019-03-15T18:59:39.273Z,66.36
2019-03-15T19:02:00.034Z,66.24
2019-03-15T19:04:30.716Z,65.71
2019-03-15T19:07:01.143Z,65.98
2019-03-15T19:09:33.188Z,66.31
2019-03-15T19:12:03.713Z,66.41
2019-03-15T19:14:34.371Z,66.31
2019-03-15T19:17:06.772Z,66.46
2019-03-15T19:19:37.360Z,66.18
2019-03-15T19:22:07.996Z,65.98
2019-03-15T19:24:38.941Z,65.89
2019-03-15T19:27:09.764Z,66.01
2019-03-15T19:29:53.197Z,66.37
2019-03-15T19:32:13.276Z,66.31
2019-03-15T19:34:44.723Z,66.26
2019-03-15T19:37:17.199Z,66.71
2019-03-15T19:39:47.931Z,66.67
2019-03-15T19:42:18.869Z,66.81
2019-03-15T19:44:49.857Z,66.43
2019-03-15T19:47:20.646Z,66.73
2019-03-15T19:49:51.476Z,66.75
2019-03-15T19:52:22.156Z,66.91
2019-03-15T19:55:00.272Z,67.08
2019-03-15T19:57:26.085Z,67.31
2019-03-15T20:00:07.023Z,67.30
2019-03-15T20:02:30.285Z,67.34
2019-03-15T20:05:01.922Z,67.38
2019-03-15T20:07:32.490Z,67.46
2019-03-15T20:10:07.519Z,67.58
2019-03-15T20:12:39.532Z,67.75
2019-03-15T20:15:11.812Z,67.44
2019-03-15T20:17:42.230Z,67.61
2019-03-15T20:20:18.459Z,67.68
2019-03-15T20:22:49.947Z,67.98
2019-03-15T20:25:21.288Z,68.10
2019-03-15T20:27:51.714Z,68.02
2019-03-15T20:30:26.711Z,67.75
2019-03-15T20:32:56.356Z,67.98
2019-03-15T20:35:27.022Z,68.07
2019-03-15T20:37:57.418Z,68.30
2019-03-15T20:40:28.578Z,68.15
2019-03-15T20:42:59.384Z,68.18
2019-03-15T20:45:32.068Z,68.14
2019-03-15T20:48:03.073Z,68.15
2019-03-15T20:50:46.093Z,68.05
2019-03-15T20:53:09.792Z,68.03
2019-03-15T20:55:39.851Z,68.41
2019-03-15T20:58:10.750Z,68.31
2019-03-15T21:00:41.680Z,68.35
2019-03-15T21:03:12.411Z,68.52
2019-03-15T21:05:43.452Z,68.47
2019-03-15T21:08:15.820Z,68.60
2019-03-15T21:10:46.409Z,68.51
2019-03-15T21:13:17.201Z,68.35
2019-03-15T21:15:48.375Z,68.41
2019-03-15T21:18:19.068Z,68.36
2019-03-15T21:20:50.200Z,68.35
2019-03-15T21:23:21.348Z,68.27
2019-03-15T21:25:52.075Z,68.54
2019-03-15T21:28:23.525Z,68.39
2019-03-15T21:30:53.951Z,68.43
2019-03-15T21:33:24.684Z,68.58
2019-03-15T21:35:55.007Z,68.69
2019-03-15T21:38:26.153Z,68.75
2019-03-15T21:40:56.881Z,68.35
2019-03-15T21:43:29.061Z,67.83
2019-03-15T21:45:59.777Z,68.01
2019-03-15T21:48:32.469Z,68.24
2019-03-15T21:51:03.184Z,68.20
2019-03-15T21:53:34.130Z,68.44
2019-03-15T21:56:05.271Z,68.46
2019-03-15T21:58:36.307Z,68.80
2019-03-15T22:01:06.630Z,68.82
2019-03-15T22:03:37.465Z,69.00
2019-03-15T22:06:09.632Z,68.91
2019-03-15T22:08:40.873Z,68.72
2019-03-15T22:11:21.017Z,68.38
2019-03-15T22:13:44.827Z,68.50
2019-03-15T22:16:16.346Z,68.32
2019-03-15T22:18:48.209Z,68.54
2019-03-15T22:21:18.940Z,68.48
2019-03-15T22:23:52.850Z,68.75
2019-03-15T22:26:23.173Z,69.22
2019-03-15T22:28:53.907Z,69.16
2019-03-15T22:31:25.147Z,69.37
2019-03-15T22:33:55.350Z,69.39
2019-03-15T22:36:26.714Z,69.18
2019-03-15T22:38:57.445Z,69.06
2019-03-15T22:41:28.708Z,69.41
2019-03-15T22:43:59.832Z,69.53
2019-03-15T22:46:30.568Z,69.67
2019-03-15T22:49:01.912Z,69.78
2019-03-15T22:51:33.982Z,69.90
2019-03-15T22:54:04.500Z,69.70
2019-03-15T22:56:35.747Z,70.19
2019-03-15T22:59:07.013Z,70.55
2019-03-15T23:01:39.154Z,70.86
2019-03-15T23:04:13.475Z,70.65
2019-03-15T23:06:45.025Z,70.70
2019-03-15T23:09:16.514Z,70.79
2019-03-15T23:11:47.206Z,71.01
2019-03-15T23:14:21.937Z,71.37
2019-03-15T23:16:54.512Z,71.36
2019-03-15T23:19:25.141Z,71.75
2019-03-15T23:21:57.552Z,71.66
2019-03-15T23:24:28.551Z,71.82
2019-03-15T23:27:00.614Z,72.10
2019-03-15T23:29:31.348Z,72.66
2019-03-15T23:32:02.503Z,72.34
2019-03-15T23:34:34.655Z,72.62
2019-03-15T23:37:04.981Z,72.69
2019-03-15T23:39:36.323Z,72.26
2019-03-15T23:42:07.978Z,72.09
2019-03-15T23:44:39.329Z,71.66
2019-03-15T23:47:11.530Z,71.51
2019-03-15T23:49:42.683Z,71.38
2019-03-15T23:52:13.260Z,70.99
2019-03-15T23:54:44.408Z,71.04
2019-03-15T23:57:15.043Z,70.75
2019-03-15T23:59:46.291Z,70.80
